createdAt,value
2019-03-24T00:00:40.301Z,0.00
2019-03-24T00:01:41.314Z,0.00
2019-03-24T00:02:40.436Z,0.00
2019-03-24T00:03:40.456Z,0.00
2019-03-24T00:04:40.510Z,0.00
2019-03-24T00:05:40.551Z,0.00
2019-03-24T00:06:40.627Z,0.00
2019-03-24T00:07:40.654Z,0.00
2019-03-24T00:08:40.721Z,0.00
2019-03-24T00:09:40.717Z,0.00
2019-03-24T00:10:40.776Z,0.00
2019-03-24T00:11:40.858Z,0.00
2019-03-24T00:12:40.973Z,0.00
2019-03-24T00:13:40.908Z,0.00
2019-03-24T00:14:40.972Z,0.00
2019-03-24T00:15:41.062Z,0.00
2019-03-24T00:16:41.080Z,0.00
2019-03-24T00:17:41.119Z,0.00
2019-03-24T00:18:41.178Z,0.00
2019-03-24T00:19:41.221Z,0.00
2019-03-24T00:20:41.353Z,0.00
2019-03-24T00:21:41.378Z,0.00
2019-03-24T00:22:41.457Z,0.00
2019-03-24T00:23:41.432Z,0.00
2019-03-24T00:24:41.475Z,0.00
2019-03-24T00:25:41.597Z,0.00
2019-03-24T00:26:41.599Z,0.00
2019-03-24T00:27:41.725Z,0.00
2019-03-24T00:28:41.714Z,0.00
2019-03-24T00:29:41.775Z,0.00
2019-03-24T00:30:41.854Z,0.00
2019-03-24T00:31:41.863Z,0.00
2019-03-24T00:32:41.946Z,0.00
2019-03-24T00:33:42.017Z,0.00
2019-03-24T00:34:42.059Z,0.00
2019-03-24T00:35:42.076Z,0.00
2019-03-24T00:36:42.104Z,0.00
2019-03-24T00:37:42.224Z,0.00
2019-03-24T00:38:42.224Z,0.00
2019-03-24T00:39:42.325Z,0.00
2019-03-24T00:40:42.354Z,0.00
2019-03-24T00:41:42.394Z,0.00
2019-03-24T00:42:42.492Z,0.00
2019-03-24T00:43:42.474Z,0.00
2019-03-24T00:44:42.539Z,0.00
2019-03-24T00:45:42.615Z,0.00
2019-03-24T00:46:42.684Z,0.00
2019-03-24T00:47:42.667Z,0.00
2019-03-24T00:48:42.812Z,0.00
2019-03-24T00:49:42.811Z,0.00
2019-03-24T00:50:42.848Z,0.00
2019-03-24T00:51:42.898Z,0.00
2019-03-24T00:52:42.987Z,0.00
2019-03-24T00:53:43.042Z,0.00
2019-03-24T00:54:43.069Z,0.00
2019-03-24T00:55:43.153Z,0.00
2019-03-24T00:56:43.203Z,0.00
2019-03-24T00:57:43.228Z,0.00
2019-03-24T00:58:43.285Z,0.00
2019-03-24T00:59:43.276Z,0.00
2019-03-24T01:00:43.388Z,0.00
2019-03-24T01:01:43.454Z,0.00
2019-03-24T01:02:43.459Z,0.00
2019-03-24T01:03:43.507Z,0.00
2019-03-24T01:04:43.552Z,0.00
2019-03-24T01:05:43.623Z,0.00
2019-03-24T01:06:43.639Z,0.00
2019-03-24T01:07:43.724Z,0.00
2019-03-24T01:08:43.873Z,0.00
2019-03-24T01:09:43.794Z,0.00
2019-03-24T01:10:43.875Z,0.00
2019-03-24T01:11:43.950Z,0.00
2019-03-24T01:12:44.014Z,0.00
2019-03-24T01:13:44.089Z,0.00
2019-03-24T01:14:44.116Z,0.00
2019-03-24T01:15:47.930Z,0.00
2019-03-24T01:16:44.193Z,0.00
2019-03-24T01:17:44.282Z,0.00
2019-03-24T01:18:44.389Z,0.00
2019-03-24T01:19:44.374Z,0.00
2019-03-24T01:20:44.425Z,0.00
2019-03-24T01:21:44.459Z,0.00
2019-03-24T01:22:44.453Z,0.00
2019-03-24T01:23:44.602Z,0.00
2019-03-24T01:24:44.562Z,0.00
2019-03-24T01:25:44.606Z,0.00
2019-03-24T01:26:44.717Z,0.00
2019-03-24T01:27:44.719Z,0.00
2019-03-24T01:28:44.872Z,0.00
2019-03-24T01:29:44.867Z,0.00
2019-03-24T01:30:44.920Z,0.00
2019-03-24T01:31:44.926Z,0.00
2019-03-24T01:32:45.026Z,0.00
2019-03-24T01:33:45.089Z,0.00
2019-03-24T01:34:45.067Z,0.00
2019-03-24T01:35:45.153Z,0.00
2019-03-24T01:36:45.178Z,0.00
2019-03-24T01:37:45.243Z,0.00
2019-03-24T01:38:45.372Z,0.00
2019-03-24T01:39:45.388Z,0.00
2019-03-24T01:40:45.427Z,0.00
2019-03-24T01:41:45.479Z,0.00
2019-03-24T01:42:45.485Z,0.00
2019-03-24T01:43:45.666Z,0.00
2019-03-24T01:44:45.621Z,0.00
2019-03-24T01:45:45.699Z,0.00
2019-03-24T01:46:45.704Z,0.00
2019-03-24T01:47:45.767Z,0.00
2019-03-24T01:48:45.842Z,0.00
2019-03-24T01:49:45.910Z,0.00
2019-03-24T01:50:45.887Z,0.00
2019-03-24T01:51:45.940Z,0.00
2019-03-24T01:52:45.995Z,0.00
2019-03-24T01:53:46.039Z,0.00
2019-03-24T01:54:46.091Z,0.00
2019-03-24T01:55:46.142Z,0.00
2019-03-24T01:56:46.194Z,0.00
2019-03-24T01:57:46.243Z,0.00
2019-03-24T01:58:46.358Z,0.00
2019-03-24T01:59:46.459Z,0.00
2019-03-24T02:00:46.485Z,0.00
2019-03-24T02:01:46.516Z,0.00
2019-03-24T02:02:46.580Z,0.00
2019-03-24T02:03:46.583Z,0.00
2019-03-24T02:04:46.668Z,0.00
2019-03-24T02:05:46.656Z,0.00
2019-03-24T02:06:46.707Z,0.00
2019-03-24T02:07:46.756Z,0.00
2019-03-24T02:08:46.810Z,0.00
2019-03-24T02:09:46.858Z,0.00
2019-03-24T02:10:46.912Z,0.00
2019-03-24T02:11:46.973Z,0.00
2019-03-24T02:12:47.045Z,0.00
2019-03-24T02:13:47.063Z,0.00
2019-03-24T02:14:47.117Z,0.00
2019-03-24T02:15:47.169Z,0.00
2019-03-24T02:16:47.219Z,0.00
2019-03-24T02:17:47.269Z,0.00
2019-03-24T02:18:47.321Z,0.00
2019-03-24T02:19:47.373Z,0.00
2019-03-24T02:20:47.422Z,0.00
2019-03-24T02:21:47.475Z,0.00
2019-03-24T02:22:47.526Z,0.00
2019-03-24T02:23:47.577Z,0.00
2019-03-24T02:24:47.630Z,0.00
2019-03-24T02:25:47.682Z,0.00
2019-03-24T02:26:47.733Z,0.00
2019-03-24T02:27:47.782Z,0.00
2019-03-24T02:28:47.835Z,0.00
2019-03-24T02:29:47.884Z,0.00
2019-03-24T02:30:47.938Z,0.00
2019-03-24T02:31:47.991Z,0.00
2019-03-24T02:32:48.044Z,0.00
2019-03-24T02:33:48.093Z,0.00
2019-03-24T02:34:48.142Z,0.00
2019-03-24T02:35:48.204Z,0.00
2019-03-24T02:36:48.256Z,0.00
2019-03-24T02:37:48.297Z,0.00
2019-03-24T02:38:48.353Z,0.00
2019-03-24T02:39:48.413Z,0.00
2019-03-24T02:40:48.451Z,0.00
2019-03-24T02:41:48.502Z,0.00
2019-03-24T02:42:48.554Z,0.00
2019-03-24T02:43:48.624Z,0.00
2019-03-24T02:44:48.661Z,0.00
2019-03-24T02:45:48.750Z,0.00
2019-03-24T02:46:48.759Z,0.00
2019-03-24T02:47:48.899Z,0.00
2019-03-24T02:48:48.864Z,0.00
2019-03-24T02:49:48.913Z,0.00
2019-03-24T02:50:48.964Z,0.00
2019-03-24T02:51:49.019Z,0.00
2019-03-24T02:52:49.072Z,0.00
2019-03-24T02:53:49.118Z,0.00
2019-03-24T02:54:49.172Z,0.00
2019-03-24T02:55:49.221Z,0.00
2019-03-24T02:56:49.273Z,0.00
2019-03-24T02:57:49.332Z,0.00
2019-03-24T02:58:49.400Z,0.00
2019-03-24T02:59:49.428Z,0.00
2019-03-24T03:00:49.480Z,0.00
2019-03-24T03:01:49.531Z,0.00
2019-03-24T03:02:49.583Z,0.00
2019-03-24T03:03:49.635Z,0.00
2019-03-24T03:04:49.691Z,0.00
2019-03-24T03:05:49.738Z,0.00
2019-03-24T03:06:49.788Z,0.00
2019-03-24T03:07:49.841Z,0.00
2019-03-24T03:08:49.893Z,0.00
2019-03-24T03:09:49.945Z,0.00
2019-03-24T03:10:49.995Z,0.00
2019-03-24T03:11:50.048Z,0.00
2019-03-24T03:12:50.099Z,0.00
2019-03-24T03:13:50.148Z,0.00
2019-03-24T03:14:50.197Z,0.00
2019-03-24T03:15:50.252Z,0.00
2019-03-24T03:16:50.304Z,0.00
2019-03-24T03:17:50.356Z,0.00
2019-03-24T03:18:50.408Z,0.00
2019-03-24T03:19:53.377Z,0.00
2019-03-24T03:20:50.507Z,0.00
2019-03-24T03:21:50.559Z,0.00
2019-03-24T03:22:50.611Z,0.00
2019-03-24T03:23:50.663Z,0.00
2019-03-24T03:24:50.715Z,0.00
2019-03-24T03:25:50.769Z,0.00
2019-03-24T03:26:50.818Z,0.00
2019-03-24T03:27:50.873Z,0.00
2019-03-24T03:28:50.920Z,0.00
2019-03-24T03:29:50.972Z,0.00
2019-03-24T03:30:51.023Z,0.00
2019-03-24T03:31:51.099Z,0.00
2019-03-24T03:32:51.145Z,0.00
2019-03-24T03:33:51.177Z,0.00
2019-03-24T03:34:51.238Z,0.00
2019-03-24T03:35:51.281Z,0.00
2019-03-24T03:36:51.343Z,0.00
2019-03-24T03:37:51.468Z,0.00
2019-03-24T03:38:51.490Z,0.00
2019-03-24T03:39:57.040Z,0.00
2019-03-24T03:40:51.553Z,0.00
2019-03-24T03:41:51.589Z,0.00
2019-03-24T03:42:51.640Z,0.00
2019-03-24T03:43:51.693Z,0.00
2019-03-24T03:44:51.744Z,0.00
2019-03-24T03:45:51.794Z,0.00
2019-03-24T03:46:53.289Z,0.00
2019-03-24T03:47:51.899Z,0.00
2019-03-24T03:48:51.950Z,0.00
2019-03-24T03:49:52.001Z,0.00
2019-03-24T03:50:52.052Z,0.00
2019-03-24T03:51:52.103Z,0.00
2019-03-24T03:52:52.155Z,0.00
2019-03-24T03:53:52.206Z,0.00
2019-03-24T03:54:52.271Z,0.00
2019-03-24T03:55:52.313Z,0.00
2019-03-24T03:56:52.363Z,0.00
2019-03-24T03:57:52.419Z,0.00
2019-03-24T03:58:52.470Z,0.00
2019-03-24T03:59:52.533Z,0.00
2019-03-24T04:00:52.569Z,0.00
2019-03-24T04:01:52.618Z,0.00
2019-03-24T04:02:52.672Z,0.00
2019-03-24T04:03:52.721Z,0.00
2019-03-24T04:04:52.775Z,0.00
2019-03-24T04:05:52.828Z,0.00
2019-03-24T04:06:52.896Z,0.00
2019-03-24T04:07:52.926Z,0.00
2019-03-24T04:08:52.981Z,0.00
2019-03-24T04:09:53.030Z,0.00
2019-03-24T04:10:53.085Z,0.00
2019-03-24T04:11:53.134Z,0.00
2019-03-24T04:12:53.186Z,0.00
2019-03-24T04:13:53.247Z,0.00
2019-03-24T04:14:53.299Z,0.00
2019-03-24T04:15:53.339Z,0.00
2019-03-24T04:17:06.399Z,0.00
2019-03-24T04:17:53.440Z,0.00
2019-03-24T04:18:53.493Z,0.00
2019-03-24T04:19:53.547Z,0.00
2019-03-24T04:20:53.597Z,0.00
2019-03-24T04:21:53.652Z,0.00
2019-03-24T04:22:53.699Z,0.00
2019-03-24T04:23:53.752Z,0.00
2019-03-24T04:24:53.803Z,0.00
2019-03-24T04:25:53.854Z,0.00
2019-03-24T04:26:53.917Z,0.00
2019-03-24T04:27:53.956Z,0.00
2019-03-24T04:28:54.012Z,0.00
2019-03-24T04:29:54.058Z,0.00
2019-03-24T04:30:54.111Z,0.00
2019-03-24T04:31:54.163Z,0.00
2019-03-24T04:32:54.211Z,0.00
2019-03-24T04:33:54.264Z,0.00
2019-03-24T04:34:54.315Z,0.00
2019-03-24T04:35:54.367Z,0.00
2019-03-24T04:36:54.425Z,0.00
2019-03-24T04:37:54.468Z,0.00
2019-03-24T04:38:54.519Z,0.00
2019-03-24T04:39:54.574Z,0.00
2019-03-24T04:40:54.624Z,0.00
2019-03-24T04:41:54.675Z,0.00
2019-03-24T04:42:54.731Z,0.00
2019-03-24T04:43:54.777Z,0.00
2019-03-24T04:44:54.827Z,0.00
2019-03-24T04:45:54.879Z,0.00
2019-03-24T04:46:54.930Z,0.00
2019-03-24T04:47:54.981Z,0.00
2019-03-24T04:48:55.032Z,0.00
2019-03-24T04:49:55.093Z,0.00
2019-03-24T04:50:55.135Z,0.00
2019-03-24T04:51:55.187Z,0.00
2019-03-24T04:52:55.240Z,0.00
2019-03-24T04:53:55.289Z,0.00
2019-03-24T04:54:59.257Z,0.00
2019-03-24T04:55:55.399Z,0.00
2019-03-24T04:56:55.445Z,0.00
2019-03-24T04:57:55.496Z,0.00
2019-03-24T04:58:55.546Z,0.00
2019-03-24T04:59:55.599Z,4.00
2019-03-24T05:00:55.650Z,0.00
2019-03-24T05:01:55.701Z,0.00
2019-03-24T05:02:55.753Z,4.00
2019-03-24T05:03:55.813Z,4.00
2019-03-24T05:04:55.856Z,4.00
2019-03-24T05:05:55.906Z,4.00
2019-03-24T05:06:55.958Z,4.00
2019-03-24T05:07:56.011Z,8.00
2019-03-24T05:08:56.720Z,8.00
2019-03-24T05:09:56.112Z,12.00
2019-03-24T05:10:56.166Z,12.00
2019-03-24T05:11:56.215Z,16.00
2019-03-24T05:12:56.267Z,16.00
2019-03-24T05:13:56.318Z,20.00
2019-03-24T05:14:56.370Z,24.00
2019-03-24T05:15:56.426Z,28.00
2019-03-24T05:16:56.474Z,32.00
2019-03-24T05:17:56.523Z,36.00
2019-03-24T05:18:56.575Z,40.00
2019-03-24T05:19:56.626Z,48.00
2019-03-24T05:20:56.679Z,44.00
2019-03-24T05:21:56.730Z,52.00
2019-03-24T05:22:56.781Z,56.00
2019-03-24T05:23:56.834Z,56.00
2019-03-24T05:24:56.888Z,60.00
2019-03-24T05:25:56.937Z,68.00
2019-03-24T05:26:56.988Z,80.00
2019-03-24T05:27:57.040Z,84.00
2019-03-24T05:28:57.093Z,92.00
2019-03-24T05:29:57.143Z,96.00
2019-03-24T05:30:57.195Z,104.00
2019-03-24T05:31:57.248Z,112.00
2019-03-24T05:32:57.298Z,116.00
2019-03-24T05:33:57.349Z,128.00
2019-03-24T05:34:57.401Z,148.00
2019-03-24T05:35:57.455Z,168.00
2019-03-24T05:36:57.510Z,184.00
2019-03-24T05:37:57.556Z,208.00
2019-03-24T05:38:57.608Z,212.00
2019-03-24T05:39:57.660Z,220.00
2019-03-24T05:40:57.710Z,240.00
2019-03-24T05:41:57.761Z,252.00
2019-03-24T05:42:57.814Z,260.00
2019-03-24T05:43:57.866Z,284.00
2019-03-24T05:44:57.917Z,308.00
2019-03-24T05:45:57.970Z,332.00
2019-03-24T05:46:58.021Z,364.00
2019-03-24T05:47:58.076Z,384.00
2019-03-24T05:48:58.124Z,396.00
2019-03-24T05:49:58.176Z,396.00
2019-03-24T05:50:58.227Z,388.00
2019-03-24T05:51:58.281Z,392.00
2019-03-24T05:52:58.330Z,404.00
2019-03-24T05:53:58.384Z,420.00
2019-03-24T05:54:58.434Z,440.00
2019-03-24T05:55:58.485Z,480.00
2019-03-24T05:56:59.126Z,512.00
2019-03-24T05:57:58.589Z,536.00
2019-03-24T05:58:58.640Z,532.00
2019-03-24T05:59:58.693Z,524.00
2019-03-24T06:00:58.745Z,520.00
2019-03-24T06:01:58.799Z,548.00
2019-03-24T06:02:58.849Z,576.00
2019-03-24T06:03:58.900Z,584.00
2019-03-24T06:04:58.952Z,592.00
2019-03-24T06:05:59.005Z,604.00
2019-03-24T06:06:59.055Z,620.00
2019-03-24T06:07:59.109Z,632.00
2019-03-24T06:08:59.160Z,624.00
2019-03-24T06:09:59.210Z,632.00
2019-03-24T06:10:59.263Z,656.00
2019-03-24T06:11:59.315Z,696.00
2019-03-24T06:12:59.366Z,736.00
2019-03-24T06:13:59.418Z,756.00
2019-03-24T06:14:59.470Z,760.00
2019-03-24T06:15:59.522Z,776.00
2019-03-24T06:16:59.574Z,804.00
2019-03-24T06:17:59.625Z,816.00
2019-03-24T06:18:59.715Z,836.00
2019-03-24T06:19:59.729Z,860.00
2019-03-24T06:20:59.782Z,924.00
2019-03-24T06:21:59.833Z,984.00
2019-03-24T06:22:59.885Z,1044.00
2019-03-24T06:23:59.937Z,1056.00
2019-03-24T06:24:59.990Z,1060.00
2019-03-24T06:26:00.040Z,1040.00
2019-03-24T06:27:00.138Z,1000.00
2019-03-24T06:28:00.147Z,1000.00
2019-03-24T06:29:00.197Z,1000.00
2019-03-24T06:30:00.332Z,1052.00
2019-03-24T06:31:01.794Z,1096.00
2019-03-24T06:32:00.351Z,1152.00
2019-03-24T06:33:00.403Z,1212.00
2019-03-24T06:34:00.455Z,1240.00
2019-03-24T06:35:00.508Z,1232.00
2019-03-24T06:36:00.558Z,1200.00
2019-03-24T06:37:00.644Z,1152.00
2019-03-24T06:38:00.664Z,1116.00
2019-03-24T06:39:00.716Z,1128.00
2019-03-24T06:40:00.767Z,1176.00
2019-03-24T06:41:00.820Z,1220.00
2019-03-24T06:42:00.872Z,1264.00
2019-03-24T06:43:00.923Z,1320.00
2019-03-24T06:44:00.986Z,1476.00
2019-03-24T06:45:01.034Z,1612.00
2019-03-24T06:46:01.081Z,1492.00
2019-03-24T06:47:01.133Z,1356.00
2019-03-24T06:48:01.185Z,1324.00
2019-03-24T06:49:01.237Z,1376.00
2019-03-24T06:50:01.289Z,1524.00
2019-03-24T06:51:01.341Z,1708.00
2019-03-24T06:52:01.394Z,1708.00
2019-03-24T06:53:01.444Z,1616.00
2019-03-24T06:54:01.497Z,1600.00
2019-03-24T06:55:01.550Z,1668.00
2019-03-24T06:56:01.604Z,1676.00
2019-03-24T06:57:01.658Z,1628.00
2019-03-24T06:58:01.707Z,1624.00
2019-03-24T06:59:01.764Z,1736.00
2019-03-24T07:00:01.814Z,1872.00
2019-03-24T07:01:01.864Z,1920.00
2019-03-24T07:02:01.919Z,1944.00
2019-03-24T07:03:01.977Z,2068.00
2019-03-24T07:04:02.023Z,2176.00
2019-03-24T07:05:02.079Z,2228.00
2019-03-24T07:06:02.126Z,2316.00
2019-03-24T07:07:02.431Z,2464.00
2019-03-24T07:08:02.233Z,2596.00
2019-03-24T07:09:02.868Z,2728.00
2019-03-24T07:10:02.881Z,2896.00
2019-03-24T07:11:03.061Z,3028.00
2019-03-24T07:12:02.441Z,3100.00
2019-03-24T07:13:02.495Z,3084.00
2019-03-24T07:14:02.553Z,2900.00
2019-03-24T07:15:02.602Z,2876.00
2019-03-24T07:16:02.652Z,3032.00
2019-03-24T07:17:02.706Z,3300.00
2019-03-24T07:18:08.481Z,3656.00
2019-03-24T07:19:02.811Z,3836.00
2019-03-24T07:20:02.863Z,3840.00
2019-03-24T07:21:02.915Z,3840.00
2019-03-24T07:22:02.969Z,3680.00
2019-03-24T07:23:03.021Z,3596.00
2019-03-24T07:24:03.075Z,3752.00
2019-03-24T07:25:03.128Z,3812.00
2019-03-24T07:26:03.180Z,3728.00
2019-03-24T07:27:03.244Z,3676.00
2019-03-24T07:28:03.287Z,3688.00
2019-03-24T07:29:03.340Z,3604.00
2019-03-24T07:30:03.391Z,3788.00
2019-03-24T07:31:03.447Z,4144.00
2019-03-24T07:32:03.497Z,4168.00
2019-03-24T07:33:03.552Z,3952.00
2019-03-24T07:34:03.602Z,3964.00
2019-03-24T07:35:03.663Z,4108.00
2019-03-24T07:36:03.710Z,4212.00
2019-03-24T07:37:03.763Z,4304.00
2019-03-24T07:38:03.816Z,4484.00
2019-03-24T07:39:03.870Z,4836.00
2019-03-24T07:40:03.921Z,4720.00
2019-03-24T07:41:03.976Z,4636.00
2019-03-24T07:42:05.596Z,4820.00
2019-03-24T07:43:04.083Z,5072.00
2019-03-24T07:44:04.134Z,5464.00
2019-03-24T07:45:04.189Z,5908.00
2019-03-24T07:46:04.241Z,5960.00
2019-03-24T07:47:04.294Z,5788.00
2019-03-24T07:48:04.367Z,6040.00
2019-03-24T07:49:04.402Z,6572.00
2019-03-24T07:50:04.453Z,7308.00
2019-03-24T07:51:04.508Z,7892.00
2019-03-24T07:52:04.560Z,8160.00
2019-03-24T07:53:04.614Z,8384.00
2019-03-24T07:54:04.668Z,8468.00
2019-03-24T07:55:04.720Z,8572.00
2019-03-24T07:56:04.774Z,8708.00
2019-03-24T07:57:04.828Z,8816.00
2019-03-24T07:58:04.882Z,8860.00
2019-03-24T07:59:04.934Z,8884.00
2019-03-24T08:00:04.989Z,8920.00
2019-03-24T08:01:05.043Z,8960.00
2019-03-24T08:02:05.101Z,9096.00
2019-03-24T08:03:05.149Z,9236.00
2019-03-24T08:04:06.074Z,9316.00
2019-03-24T08:05:05.259Z,9500.00
2019-03-24T08:06:05.313Z,9828.00
2019-03-24T08:07:05.366Z,10072.00
2019-03-24T08:08:05.423Z,10300.00
2019-03-24T08:09:05.481Z,10524.00
2019-03-24T08:10:05.543Z,10716.00
2019-03-24T08:11:05.585Z,10840.00
2019-03-24T08:12:05.640Z,10984.00
2019-03-24T08:13:05.691Z,11140.00
2019-03-24T08:14:05.745Z,11404.00
2019-03-24T08:15:05.800Z,11600.00
2019-03-24T08:16:05.856Z,11740.00
2019-03-24T08:17:05.910Z,11844.00
2019-03-24T08:18:05.965Z,11904.00
2019-03-24T08:19:06.021Z,11916.00
2019-03-24T08:20:06.075Z,11912.00
2019-03-24T08:21:06.131Z,11852.00
2019-03-24T08:22:06.184Z,11736.00
2019-03-24T08:23:06.239Z,11592.00
2019-03-24T08:24:06.295Z,11412.00
2019-03-24T08:25:06.354Z,11256.00
2019-03-24T08:26:06.404Z,11292.00
2019-03-24T08:27:06.460Z,11432.00
2019-03-24T08:28:06.518Z,11512.00
2019-03-24T08:29:06.586Z,11480.00
2019-03-24T08:30:06.624Z,11400.00
2019-03-24T08:31:06.686Z,11396.00
2019-03-24T08:32:06.736Z,11564.00
2019-03-24T08:33:06.791Z,11896.00
2019-03-24T08:34:06.846Z,12328.00
2019-03-24T08:35:06.902Z,12596.00
2019-03-24T08:36:07.006Z,12608.00
2019-03-24T08:37:07.014Z,12556.00
2019-03-24T08:38:07.069Z,12452.00
2019-03-24T08:39:07.123Z,12476.00
2019-03-24T08:40:07.179Z,12440.00
2019-03-24T08:41:07.237Z,12420.00
2019-03-24T08:42:07.290Z,12320.00
2019-03-24T08:43:07.347Z,12188.00
2019-03-24T08:44:07.400Z,11960.00
2019-03-24T08:45:07.457Z,11656.00
2019-03-24T08:46:07.513Z,11472.00
2019-03-24T08:47:07.568Z,11884.00
2019-03-24T08:48:07.625Z,12500.00
2019-03-24T08:49:07.681Z,12828.00
2019-03-24T08:50:07.739Z,13096.00
2019-03-24T08:51:07.795Z,13208.00
2019-03-24T08:52:08.514Z,13268.00
2019-03-24T08:53:07.904Z,12884.00
2019-03-24T08:54:07.960Z,12392.00
2019-03-24T08:55:08.068Z,12508.00
2019-03-24T08:56:08.072Z,12972.00
2019-03-24T08:57:08.130Z,13412.00
2019-03-24T08:58:08.184Z,13696.00
2019-03-24T08:59:08.244Z,13692.00
2019-03-24T09:00:08.297Z,13668.00
2019-03-24T09:01:08.353Z,13772.00
2019-03-24T09:02:08.409Z,13928.00
2019-03-24T09:03:08.466Z,13960.00
2019-03-24T09:04:08.522Z,14032.00
2019-03-24T09:05:08.582Z,13908.00
2019-03-24T09:06:08.634Z,13564.00
2019-03-24T09:07:08.691Z,13352.00
2019-03-24T09:08:08.766Z,13528.00
2019-03-24T09:09:08.817Z,14216.00
2019-03-24T09:10:08.862Z,15064.00
2019-03-24T09:11:08.918Z,15288.00
2019-03-24T09:12:08.975Z,14840.00
2019-03-24T09:13:09.031Z,14608.00
2019-03-24T09:14:09.086Z,14632.00
2019-03-24T09:15:09.145Z,15428.00
2019-03-24T09:16:09.203Z,15432.00
2019-03-24T09:17:09.260Z,15168.00
2019-03-24T09:18:09.316Z,15496.00
2019-03-24T09:19:09.373Z,16140.00
2019-03-24T09:20:09.429Z,16892.00
2019-03-24T09:21:09.487Z,17184.00
2019-03-24T09:22:09.543Z,17144.00
2019-03-24T09:23:10.708Z,17184.00
2019-03-24T09:24:09.657Z,17440.00
2019-03-24T09:25:09.715Z,17232.00
2019-03-24T09:26:09.772Z,17952.00
2019-03-24T09:27:09.830Z,17696.00
2019-03-24T09:28:09.889Z,17568.00
2019-03-24T09:29:09.943Z,18144.00
2019-03-24T09:30:09.999Z,18080.00
2019-03-24T09:31:10.620Z,18176.00
2019-03-24T09:32:10.115Z,17536.00
2019-03-24T09:33:10.174Z,16908.00
2019-03-24T09:34:10.230Z,16324.00
2019-03-24T09:35:10.287Z,15920.00
2019-03-24T09:36:10.345Z,16184.00
2019-03-24T09:37:10.409Z,17124.00
2019-03-24T09:38:10.462Z,18208.00
2019-03-24T09:39:10.521Z,18496.00
2019-03-24T09:40:10.578Z,17984.00
2019-03-24T09:41:10.636Z,17760.00
2019-03-24T09:42:10.693Z,17556.00
2019-03-24T09:43:10.751Z,17984.00
2019-03-24T09:44:10.813Z,18368.00
2019-03-24T09:45:10.868Z,18176.00
2019-03-24T09:46:10.924Z,17920.00
2019-03-24T09:47:10.983Z,17184.00
2019-03-24T09:48:11.042Z,17260.00
2019-03-24T09:49:11.100Z,17436.00
2019-03-24T09:50:11.158Z,17604.00
2019-03-24T09:51:11.216Z,17248.00
2019-03-24T09:52:11.274Z,16736.00
2019-03-24T09:53:11.334Z,16680.00
2019-03-24T09:54:11.436Z,16744.00
2019-03-24T09:55:11.449Z,16588.00
2019-03-24T09:56:11.507Z,15936.00
2019-03-24T09:57:11.566Z,15468.00
2019-03-24T09:58:11.623Z,15128.00
2019-03-24T09:59:11.682Z,14668.00
2019-03-24T10:00:11.741Z,14404.00
2019-03-24T10:01:11.800Z,14964.00
2019-03-24T10:02:11.859Z,15628.00
2019-03-24T10:03:11.914Z,15944.00
2019-03-24T10:04:11.973Z,15524.00
2019-03-24T10:05:12.033Z,15156.00
2019-03-24T10:06:12.091Z,14936.00
2019-03-24T10:07:12.148Z,15148.00
2019-03-24T10:08:12.207Z,15260.00
2019-03-24T10:09:12.266Z,15352.00
2019-03-24T10:10:12.323Z,15716.00
2019-03-24T10:11:12.381Z,16212.00
2019-03-24T10:12:12.440Z,16444.00
2019-03-24T10:13:12.499Z,16084.00
2019-03-24T10:14:12.557Z,15128.00
2019-03-24T10:15:12.615Z,14692.00
2019-03-24T10:16:12.673Z,14736.00
2019-03-24T10:17:12.732Z,15100.00
2019-03-24T10:18:12.790Z,15180.00
2019-03-24T10:19:14.314Z,15168.00
2019-03-24T10:20:12.907Z,14968.00
2019-03-24T10:21:12.970Z,15488.00
2019-03-24T10:22:13.026Z,15484.00
2019-03-24T10:23:13.081Z,15664.00
2019-03-24T10:24:13.140Z,16012.00
2019-03-24T10:25:13.197Z,15720.00
2019-03-24T10:26:13.257Z,15968.00
2019-03-24T10:27:13.318Z,16480.00
2019-03-24T10:28:13.374Z,16884.00
2019-03-24T10:29:13.433Z,17048.00
2019-03-24T10:30:13.489Z,16808.00
2019-03-24T10:31:17.586Z,17344.00
2019-03-24T10:32:13.606Z,17760.00
2019-03-24T10:33:13.665Z,18880.00
2019-03-24T10:34:13.723Z,19648.00
2019-03-24T10:35:13.782Z,20192.00
2019-03-24T10:36:13.839Z,20704.00
2019-03-24T10:37:13.900Z,21184.00
2019-03-24T10:38:13.956Z,21920.00
2019-03-24T10:39:14.016Z,22848.00
2019-03-24T10:40:14.610Z,23648.00
2019-03-24T10:41:14.132Z,24000.00
2019-03-24T10:42:14.196Z,24672.00
2019-03-24T10:43:14.252Z,25504.00
2019-03-24T10:44:14.312Z,27008.00
2019-03-24T10:45:14.370Z,27744.00
2019-03-24T10:46:14.427Z,28000.00
2019-03-24T10:47:14.488Z,27392.00
2019-03-24T10:48:14.550Z,25728.00
2019-03-24T10:49:24.350Z,25120.00
2019-03-24T10:50:14.750Z,24608.00
2019-03-24T10:51:14.725Z,24960.00
2019-03-24T10:52:14.787Z,25984.00
2019-03-24T10:53:14.845Z,27296.00
2019-03-24T10:54:14.905Z,27360.00
2019-03-24T10:55:14.966Z,25728.00
2019-03-24T10:56:15.025Z,24608.00
2019-03-24T10:57:15.086Z,23840.00
2019-03-24T10:58:15.145Z,23648.00
2019-03-24T10:59:15.205Z,23776.00
2019-03-24T11:00:15.266Z,23808.00
2019-03-24T11:01:15.326Z,23648.00
2019-03-24T11:02:15.390Z,23168.00
2019-03-24T11:03:15.449Z,22016.00
2019-03-24T11:04:16.013Z,20992.00
2019-03-24T11:05:15.568Z,20640.00
2019-03-24T11:06:15.628Z,20544.00
2019-03-24T11:07:15.687Z,20480.00
2019-03-24T11:08:15.749Z,20384.00
2019-03-24T11:09:15.810Z,20096.00
2019-03-24T11:10:15.873Z,19872.00
2019-03-24T11:11:15.939Z,19968.00
2019-03-24T11:12:15.991Z,19648.00
2019-03-24T11:13:16.052Z,18784.00
2019-03-24T11:14:16.114Z,17632.00
2019-03-24T11:15:16.716Z,16240.00
2019-03-24T11:16:16.232Z,15200.00
2019-03-24T11:17:16.293Z,14744.00
2019-03-24T11:18:16.356Z,14712.00
2019-03-24T11:19:16.414Z,14760.00
2019-03-24T11:20:16.475Z,15056.00
2019-03-24T11:21:16.535Z,15308.00
2019-03-24T11:22:16.594Z,15520.00
2019-03-24T11:23:16.662Z,15900.00
2019-03-24T11:24:16.716Z,16052.00
2019-03-24T11:25:16.776Z,16144.00
2019-03-24T11:26:16.837Z,16340.00
2019-03-24T11:27:16.936Z,16508.00
2019-03-24T11:28:19.169Z,16552.00
2019-03-24T11:29:17.017Z,16892.00
2019-03-24T11:30:17.074Z,17288.00
2019-03-24T11:31:17.142Z,17888.00
2019-03-24T11:32:17.195Z,18496.00
2019-03-24T11:33:17.257Z,19296.00
2019-03-24T11:34:17.318Z,19616.00
2019-03-24T11:35:17.378Z,19200.00
2019-03-24T11:36:17.436Z,18976.00
2019-03-24T11:37:17.504Z,18496.00
2019-03-24T11:38:17.555Z,17760.00
2019-03-24T11:39:17.616Z,16772.00
2019-03-24T11:40:17.680Z,15640.00
2019-03-24T11:41:17.737Z,14292.00
2019-03-24T11:42:17.796Z,13000.00
2019-03-24T11:43:17.856Z,11596.00
2019-03-24T11:44:17.918Z,9592.00
2019-03-24T11:45:17.977Z,8104.00
2019-03-24T11:46:18.036Z,6964.00
2019-03-24T11:47:26.263Z,6208.00
2019-03-24T11:48:18.160Z,5656.00
2019-03-24T11:49:18.239Z,5132.00
2019-03-24T11:50:18.275Z,4652.00
2019-03-24T11:51:18.334Z,4152.00
2019-03-24T11:52:18.395Z,3836.00
2019-03-24T11:53:18.454Z,3612.00
2019-03-24T11:54:18.514Z,3512.00
2019-03-24T11:55:18.573Z,3428.00
2019-03-24T11:56:18.633Z,3336.00
2019-03-24T11:57:18.721Z,3352.00
2019-03-24T11:58:18.748Z,3308.00
2019-03-24T11:59:18.808Z,3396.00
2019-03-24T12:00:18.868Z,3488.00
2019-03-24T12:01:18.925Z,3452.00
2019-03-24T12:02:18.984Z,3408.00
2019-03-24T12:03:19.052Z,3348.00
2019-03-24T12:04:19.103Z,3476.00
2019-03-24T12:05:19.163Z,3804.00
2019-03-24T12:06:19.218Z,4128.00
2019-03-24T12:07:19.276Z,4236.00
2019-03-24T12:08:19.335Z,4172.00
2019-03-24T12:09:19.400Z,4152.00
2019-03-24T12:10:19.451Z,4240.00
2019-03-24T12:11:19.511Z,4504.00
2019-03-24T12:12:19.570Z,4848.00
2019-03-24T12:13:19.627Z,5228.00
2019-03-24T12:14:19.692Z,5524.00
2019-03-24T12:15:19.742Z,5616.00
2019-03-24T12:16:19.800Z,5524.00
2019-03-24T12:17:19.858Z,5508.00
2019-03-24T12:18:19.919Z,5892.00
2019-03-24T12:19:19.978Z,6388.00
2019-03-24T12:20:20.031Z,7032.00
2019-03-24T12:21:20.091Z,7400.00
2019-03-24T12:22:20.147Z,7504.00
2019-03-24T12:23:21.077Z,7704.00
2019-03-24T12:24:20.266Z,7668.00
2019-03-24T12:25:20.321Z,7836.00
2019-03-24T12:26:20.378Z,8324.00
2019-03-24T12:27:20.439Z,8868.00
2019-03-24T12:28:20.494Z,9496.00
2019-03-24T12:29:20.552Z,9844.00
2019-03-24T12:30:20.613Z,9408.00
2019-03-24T12:31:20.668Z,8996.00